Time;durP1;ratioP1;P1;durP2;ratioP2;P2;SDS_P1;SDS_P2;PMS_P1;PMS_P2;Temp;Humidity;BMP_temperature;BMP_pressure;BME280_temperature;BME280_humidity;BME280_pressure;Samples;Min_cycle;Max_cycle;Signal;HPM_P1;HPM_P2
2021/03/15 00:00:25;;;;;;;25.48;17.30;;;;;;;2.32;79.15;99748.19;1731247;82;21223;-71
2021/03/15 00:02:53;;;;;;;20.32;14.43;;;;;;;2.34;79.18;99750.22;1747318;81;21623;-71
2021/03/15 00:05:20;;;;;;;20.88;13.88;;;;;;;2.35;79.21;99750.58;1761950;81;21132;-71
2021/03/15 00:07:46;;;;;;;16.97;9.95;;;;;;;2.34;79.26;99739.70;1761955;81;21216;-71
2021/03/15 00:10:12;;;;;;;11.93;8.10;;;;;;;2.32;79.30;99740.30;1786089;80;21148;-70
2021/03/15 00:12:40;;;;;;;11.93;7.90;;;;;;;2.28;79.34;99745.98;1786420;80;21208;-70
2021/03/15 00:15:09;;;;;;;13.78;8.13;;;;;;;2.23;79.39;99741.11;1785093;80;21214;-70
2021/03/15 00:17:36;;;;;;;12.83;7.03;;;;;;;2.18;79.45;99743.30;1786296;80;21636;-70
2021/03/15 00:20:05;;;;;;;13.38;6.08;;;;;;;2.13;79.45;99747.30;1754858;81;21138;-70
2021/03/15 00:22:32;;;;;;;9.95;6.20;;;;;;;2.10;79.46;99747.09;1749157;81;21135;-70
2021/03/15 00:24:58;;;;;;;11.93;6.30;;;;;;;2.08;79.49;99749.00;1755156;81;21181;-71
2021/03/15 00:27:24;;;;;;;9.93;5.53;;;;;;;2.05;79.52;99742.69;1755121;81;21649;-70
2021/03/15 00:29:51;;;;;;;16.57;6.92;;;;;;;2.04;79.56;99742.84;1755074;81;21246;-70
2021/03/15 00:32:20;;;;;;;12.82;6.28;;;;;;;2.05;79.57;99741.86;1760937;80;21139;-70
2021/03/15 00:34:47;;;;;;;14.00;7.37;;;;;;;2.02;79.61;99737.70;1786533;80;21172;-71
2021/03/15 00:37:13;;;;;;;9.53;6.58;;;;;;;2.04;79.67;99743.68;1754086;81;22408;-70
2021/03/15 00:39:39;;;;;;;16.15;7.20;;;;;;;2.02;79.72;99742.97;1755344;81;21167;-70
2021/03/15 00:42:06;;;;;;;16.57;8.10;;;;;;;2.00;79.75;99739.64;1722425;82;21140;-70
2021/03/15 00:44:33;;;;;;;13.18;7.42;;;;;;;1.96;79.82;99739.55;1755331;81;21136;-70
2021/03/15 00:46:59;;;;;;;14.53;7.95;;;;;;;1.93;79.86;99738.03;1755881;81;21644;-70
2021/03/15 00:49:25;;;;;;;18.45;8.73;;;;;;;1.92;79.86;99732.89;1722514;82;21968;-70
2021/03/15 00:51:52;;;;;;;12.75;7.55;;;;;;;1.89;79.89;99726.58;1755857;81;21127;-70
2021/03/15 00:54:20;;;;;;;17.92;7.83;;;;;;;1.88;79.92;99733.63;1755924;81;21159;-70
2021/03/15 00:56:46;;;;;;;13.50;7.72;;;;;;;1.88;79.94;99731.48;1722632;83;21584;-70
2021/03/15 00:59:12;;;;;;;12.78;6.87;;;;;;;1.90;79.97;99733.52;1758166;80;21172;-70
2021/03/15 01:01:38;;;;;;;12.00;7.15;;;;;;;1.88;80.02;99732.32;1755209;81;21255;-70
2021/03/15 01:04:05;;;;;;;17.57;9.08;;;;;;;1.87;80.04;99737.70;1755859;81;21231;-70
2021/03/15 01:06:31;;;;;;;18.07;8.80;;;;;;;1.85;80.09;99735.69;1755856;81;21158;-71
2021/03/15 01:08:57;;;;;;;18.35;7.87;;;;;;;1.82;80.14;99735.48;1756533;80;21131;-70
2021/03/15 01:11:25;;;;;;;12.78;7.50;;;;;;;1.81;80.19;99744.31;1755808;81;21608;-73
2021/03/15 01:13:52;;;;;;;15.48;7.45;;;;;;;1.79;80.21;99737.53;1756309;80;21299;-70
2021/03/15 01:16:18;;;;;;;13.88;8.50;;;;;;;1.75;80.26;99733.02;1755890;81;21573;-70
2021/03/15 01:18:45;;;;;;;16.12;8.98;;;;;;;1.73;80.30;99736.24;1755691;81;21624;-70
2021/03/15 01:21:15;;;;;;;15.65;8.20;;;;;;;1.70;80.32;99736.98;1738656;81;21144;-70
2021/03/15 01:23:41;;;;;;;;;;;;;;;1.66;80.38;99737.73;1732776;82;21140;-71
2021/03/15 01:26:07;;;;;;;15.13;8.33;;;;;;;1.64;80.39;99742.77;1730115;82;21214;-71
2021/03/15 01:28:33;;;;;;;16.75;8.85;;;;;;;1.60;80.42;99736.10;1729487;82;21186;-71
2021/03/15 01:31:00;;;;;;;18.50;9.15;;;;;;;1.59;80.42;99735.73;1737125;82;21144;-71
2021/03/15 01:33:26;;;;;;;18.30;8.15;;;;;;;1.56;80.46;99734.69;1737022;82;21652;-71
2021/03/15 01:35:53;;;;;;;14.78;8.45;;;;;;;1.57;80.47;99733.73;1737025;82;21632;-71
2021/03/15 01:38:20;;;;;;;10.80;7.85;;;;;;;1.58;80.49;99730.16;1755377;81;21354;-70
2021/03/15 01:40:46;;;;;;;16.93;8.25;;;;;;;1.59;80.51;99735.27;1728319;83;21163;-71
2021/03/15 01:43:12;;;;;;;14.95;7.85;;;;;;;1.59;80.54;99738.37;1755245;81;21159;-71
2021/03/15 01:45:38;;;;;;;19.12;9.63;;;;;;;1.59;80.56;99735.73;1728626;83;21163;-71
2021/03/15 01:48:11;;;;;;;18.75;9.88;;;;;;;1.59;80.60;99737.05;1755545;81;21139;-71
2021/03/15 01:50:35;;;;;;;20.00;10.05;;;;;;;1.59;80.63;99733.11;1728125;83;21206;-70
2021/03/15 01:53:01;;;;;;;21.80;10.53;;;;;;;1.56;80.67;99726.80;1728579;83;21676;-70
2021/03/15 01:55:27;;;;;;;21.30;10.03;;;;;;;1.51;80.70;99728.02;1719553;83;21172;-71
2021/03/15 01:57:54;;;;;;;19.75;9.98;;;;;;;1.49;80.74;99723.39;1699327;84;21183;-71
2021/03/15 02:00:20;;;;;;;20.23;10.78;;;;;;;1.45;80.77;99720.66;1686550;84;21119;-70
2021/03/15 02:02:57;;;;;;;19.25;9.98;;;;;;;1.41;80.77;99723.19;1679894;84;22109;-71
2021/03/15 02:05:27;;;;;;;22.32;9.00;;;;;;;1.38;80.78;99716.89;1725217;83;21317;-71
2021/03/15 02:07:54;;;;;;;15.15;8.38;;;;;;;1.34;80.80;99722.04;1725363;82;21178;-71
2021/03/15 02:10:20;;;;;;;17.15;8.73;;;;;;;1.31;80.82;99720.98;1725193;83;21167;-70
2021/03/15 02:13:28;;;;;;;19.82;9.13;;;;;;;1.31;80.85;99712.27;1725319;83;21212;-70
2021/03/15 02:16:11;;;;;;;18.30;8.40;;;;;;;1.31;80.85;99713.11;1725169;83;21223;-70
2021/03/15 02:19:07;;;;;;;14.90;8.90;;;;;;;1.29;80.89;99708.48;1699210;83;21629;-71
2021/03/15 02:21:54;;;;;;;15.95;9.33;;;;;;;1.27;80.91;99711.69;1749576;81;21191;-71
2021/03/15 02:24:38;;;;;;;17.15;9.70;;;;;;;1.27;80.94;99705.60;1730215;81;21163;-71
2021/03/15 02:27:36;;;;;;;16.62;8.93;;;;;;;1.27;80.95;99710.86;1761281;81;21576;-71
2021/03/15 02:30:28;;;;;;;20.55;9.38;;;;;;;1.24;80.98;99703.23;1761153;81;21203;-71
2021/03/15 02:33:53;;;;;;;16.05;8.58;;;;;;;1.20;80.97;99705.28;1731183;82;21576;-71
2021/03/15 02:36:19;;;;;;;13.50;7.65;;;;;;;1.15;80.99;99698.77;1729425;83;21128;-71
2021/03/15 02:38:46;;;;;;;17.45;8.60;;;;;;;1.14;81.00;99707.59;1761431;81;21139;-72
2021/03/15 02:41:14;;;;;;;13.25;7.37;;;;;;;1.11;80.99;99703.44;1731086;82;22502;-71
2021/03/15 02:43:50;;;;;;;11.28;7.28;;;;;;;1.09;80.99;99702.71;1729586;83;22149;-71
2021/03/15 02:46:19;;;;;;;20.50;8.63;;;;;;;1.09;81.00;99704.53;1761405;81;21632;-72
2021/03/15 02:48:46;;;;;;;12.45;7.83;;;;;;;1.10;81.03;99700.45;1733061;81;21188;-72
2021/03/15 02:51:13;;;;;;;12.63;7.85;;;;;;;1.11;81.03;99697.34;1761523;81;21124;-71
2021/03/15 02:53:41;;;;;;;16.55;9.00;;;;;;;1.09;81.03;99694.03;1731933;81;21162;-71
2021/03/15 02:56:13;;;;;;;13.10;8.23;;;;;;;1.08;81.06;99691.88;1748756;81;21180;-71
2021/03/15 02:58:39;;;;;;;13.10;8.05;;;;;;;1.07;81.08;99690.68;1723004;83;21154;-71
2021/03/15 03:01:05;;;;;;;14.90;8.28;;;;;;;1.05;81.09;99691.30;1723263;83;21205;-71
2021/03/15 03:03:32;;;;;;;19.27;9.95;;;;;;;1.05;81.09;99697.86;1723157;83;21142;-71
2021/03/15 03:05:58;;;;;;;12.70;8.15;;;;;;;1.06;81.07;99696.88;1723232;83;21221;-71
2021/03/15 03:08:24;;;;;;;14.70;8.28;;;;;;;1.05;81.09;99702.64;1723253;83;21214;-72
2021/03/15 03:10:50;;;;;;;15.78;8.05;;;;;;;1.04;81.11;99694.41;1723014;83;21186;-71
2021/03/15 03:13:18;;;;;;;12.85;8.08;;;;;;;1.03;81.13;99699.29;1723128;83;21189;-71
2021/03/15 03:15:44;;;;;;;15.38;7.80;;;;;;;1.03;81.11;99697.14;1723212;83;21149;-71
2021/03/15 03:18:13;;;;;;;14.03;8.18;;;;;;;1.04;81.15;99694.88;1723785;81;21210;-71
2021/03/15 03:20:40;;;;;;;16.48;9.13;;;;;;;1.05;81.15;99697.39;1739838;82;21251;-71
2021/03/15 03:23:06;;;;;;;14.13;8.60;;;;;;;1.03;81.15;99697.98;1707920;82;21206;-71
2021/03/15 03:25:32;;;;;;;13.83;8.18;;;;;;;1.00;81.18;99699.55;1737423;82;21132;-71
2021/03/15 03:27:58;;;;;;;17.15;9.68;;;;;;;0.97;81.16;99699.80;1737402;82;21147;-71
2021/03/15 03:30:31;;;;;;;12.78;7.20;;;;;;;0.99;81.20;99699.19;1737572;82;21774;-71
2021/03/15 03:32:58;;;;;;;13.88;7.80;;;;;;;0.98;81.20;99711.98;1736329;82;21232;-71
2021/03/15 03:35:24;;;;;;;12.13;6.65;;;;;;;1.00;81.21;99707.42;1737371;82;21632;-72
2021/03/15 03:37:50;;;;;;;15.98;7.80;;;;;;;1.03;81.22;99701.08;1737534;82;21178;-72
2021/03/15 03:40:17;;;;;;;14.00;8.10;;;;;;;1.08;81.23;99708.95;1737997;81;21211;-71
2021/03/15 03:42:44;;;;;;;14.43;7.55;;;;;;;1.16;81.26;99703.06;1739482;81;21214;-71
2021/03/15 03:45:11;;;;;;;10.72;7.30;;;;;;;1.22;81.27;99706.01;1737541;82;21209;-71
2021/03/15 03:47:38;;;;;;;13.22;7.70;;;;;;;1.29;81.27;99699.28;1737527;82;21180;-72
2021/03/15 03:50:06;;;;;;;14.90;8.05;;;;;;;1.34;81.28;99697.09;1737115;82;21620;-71
2021/03/15 03:52:33;;;;;;;16.15;8.65;;;;;;;1.40;81.30;99704.47;1732670;81;21147;-72
2021/03/15 03:55:01;;;;;;;12.15;8.03;;;;;;;1.45;81.31;99701.44;1732707;82;21163;-72
2021/03/15 03:57:33;;;;;;;11.65;7.62;;;;;;;1.49;81.30;99702.84;1732837;82;21176;-72
2021/03/15 04:00:07;;;;;;;14.68;7.97;;;;;;;1.56;81.32;99708.41;1732812;82;21617;-72
2021/03/15 04:02:36;;;;;;;12.20;7.40;;;;;;;1.59;81.31;99700.27;1732770;82;21167;-71
2021/03/15 04:05:07;;;;;;;12.58;7.80;;;;;;;1.61;81.33;99707.56;1732778;82;21156;-71
2021/03/15 04:07:33;;;;;;;17.60;10.80;;;;;;;1.63;81.33;99714.81;1732925;82;21185;-72
2021/03/15 04:10:04;;;;;;;15.60;9.33;;;;;;;1.64;81.37;99713.86;1732978;82;22131;-72
2021/03/15 04:12:31;;;;;;;15.68;9.25;;;;;;;1.64;81.38;99714.70;1716351;82;21180;-71
2021/03/15 04:14:57;;;;;;;15.88;8.65;;;;;;;1.65;81.39;99718.16;1755973;81;21195;-71
2021/03/15 04:17:26;;;;;;;13.65;8.35;;;;;;;1.65;81.40;99715.53;1736778;81;21183;-72
2021/03/15 04:19:56;;;;;;;12.28;5.92;;;;;;;1.68;81.41;99723.16;1756182;81;21147;-71
2021/03/15 04:22:23;;;;;;;14.28;7.67;;;;;;;1.69;81.41;99722.20;1755941;80;21529;-70
2021/03/15 04:24:49;;;;;;;15.35;8.30;;;;;;;1.71;81.40;99722.89;1755790;81;21584;-70
2021/03/15 04:27:15;;;;;;;11.73;7.50;;;;;;;1.73;81.42;99720.95;1756024;81;21187;-70
2021/03/15 04:29:41;;;;;;;15.40;7.42;;;;;;;1.75;81.43;99720.36;1772035;80;21123;-70
2021/03/15 04:32:08;;;;;;;13.95;7.45;;;;;;;1.76;81.43;99724.16;1756595;80;21164;-70
2021/03/15 04:34:35;;;;;;;15.45;8.63;;;;;;;1.76;81.43;99718.89;1728888;81;21224;-70
2021/03/15 04:37:02;;;;;;;16.60;8.93;;;;;;;1.78;81.43;99725.34;1724146;83;21522;-70
2021/03/15 04:39:29;;;;;;;14.18;9.80;;;;;;;1.79;81.46;99720.45;1756532;80;21161;-72
2021/03/15 04:41:56;;;;;;;14.47;8.43;;;;;;;1.81;81.45;99729.03;1755796;81;21167;-70
2021/03/15 04:44:24;;;;;;;16.32;8.25;;;;;;;1.79;81.46;99727.02;1755791;81;21210;-70
2021/03/15 04:46:52;;;;;;;14.75;7.65;;;;;;;1.78;81.47;99724.03;1755919;81;21171;-71
2021/03/15 04:49:18;;;;;;;12.63;6.92;;;;;;;1.81;81.44;99726.40;1755905;81;21186;-71
2021/03/15 04:51:44;;;;;;;14.05;7.67;;;;;;;1.83;81.46;99735.00;1756006;81;21171;-70
2021/03/15 04:54:11;;;;;;;13.70;8.20;;;;;;;1.85;81.47;99733.06;1755759;81;21156;-70
2021/03/15 04:56:38;;;;;;;10.40;6.95;;;;;;;1.87;81.46;99735.06;1755349;81;21671;-70
2021/03/15 04:59:04;;;;;;;15.40;7.97;;;;;;;1.89;81.47;99730.53;1787110;80;21185;-71
2021/03/15 05:01:32;;;;;;;13.70;8.13;;;;;;;1.90;81.48;99738.77;1754180;81;21191;-71
2021/03/15 05:03:58;;;;;;;14.18;8.33;;;;;;;1.92;81.48;99734.20;1754336;81;21147;-71
2021/03/15 05:06:25;;;;;;;17.20;8.80;;;;;;;1.92;81.48;99727.63;1786831;80;21159;-71
2021/03/15 05:08:53;;;;;;;21.42;13.53;;;;;;;1.93;81.50;99738.51;1734331;81;21556;-71
2021/03/15 05:11:22;;;;;;;17.92;12.03;;;;;;;1.92;81.51;99738.14;1724245;83;21611;-71
2021/03/15 05:13:48;;;;;;;22.30;10.78;;;;;;;1.92;81.52;99740.30;1755874;81;21146;-71
2021/03/15 05:16:14;;;;;;;19.23;9.10;;;;;;;1.93;81.52;99738.51;1755796;81;21155;-71
2021/03/15 05:18:40;;;;;;;11.65;7.58;;;;;;;1.94;81.52;99736.20;1755647;81;21655;-71
2021/03/15 05:21:07;;;;;;;17.05;7.55;;;;;;;1.95;81.50;99739.20;1756780;80;21143;-71
2021/03/15 05:23:34;;;;;;;11.50;7.37;;;;;;;1.97;81.49;99739.91;1756838;81;21197;-71
2021/03/15 05:26:00;;;;;;;13.93;7.08;;;;;;;1.98;81.51;99738.45;1761524;81;21167;-71
2021/03/15 05:28:26;;;;;;;12.18;7.62;;;;;;;2.01;81.54;99739.97;1753269;81;21207;-71
2021/03/15 05:30:53;;;;;;;13.00;7.87;;;;;;;2.01;81.52;99739.97;1753271;81;21163;-71
2021/03/15 05:33:21;;;;;;;14.40;8.00;;;;;;;2.03;81.53;99741.17;1701676;81;21196;-71
2021/03/15 05:35:50;;;;;;;24.95;8.48;;;;;;;2.03;81.56;99749.90;1753270;81;21640;-71
2021/03/15 05:38:18;;;;;;;14.10;7.92;;;;;;;2.03;81.56;99744.64;1753268;81;21577;-72
2021/03/15 05:40:45;;;;;;;18.12;9.00;;;;;;;2.03;81.57;99745.95;1771087;81;21195;-71
2021/03/15 05:43:29;;;;;;;11.12;7.80;;;;;;;2.02;81.56;99740.34;1771552;81;21131;-71
2021/03/15 05:46:10;;;;;;;17.45;7.92;;;;;;;2.05;81.56;99749.27;1771617;81;21136;-71
2021/03/15 05:49:10;;;;;;;10.65;6.78;;;;;;;2.07;81.56;99746.05;1759941;81;22078;-71
2021/03/15 05:51:48;;;;;;;12.33;6.50;;;;;;;2.09;81.54;99745.41;1740351;82;21191;-71
2021/03/15 05:55:03;;;;;;;13.25;6.97;;;;;;;2.13;81.55;99744.19;1735712;82;21594;-71
2021/03/15 05:58:06;;;;;;;13.95;7.67;;;;;;;2.16;81.55;99745.23;1735846;81;21192;-71
2021/03/15 06:01:04;;;;;;;11.35;6.65;;;;;;;2.19;81.56;99748.08;1735761;82;21128;-71
2021/03/15 06:04:11;;;;;;;13.60;8.03;;;;;;;2.22;81.56;99744.70;1736667;81;21205;-71
2021/03/15 06:06:38;;;;;;;16.12;7.75;;;;;;;2.23;81.57;99741.59;1753111;81;21623;-71
2021/03/15 06:09:06;;;;;;;13.95;7.95;;;;;;;2.23;81.57;99749.00;1752865;81;21152;-71
2021/03/15 06:11:44;;;;;;;11.43;7.37;;;;;;;2.23;81.54;99751.63;1733254;81;21141;-71
2021/03/15 06:14:13;;;;;;;12.58;7.53;;;;;;;2.25;81.57;99755.45;1740575;82;21131;-71
2021/03/15 06:16:41;;;;;;;17.70;9.23;;;;;;;2.25;81.56;99749.69;1743648;81;21318;-72
2021/03/15 06:19:07;;;;;;;26.75;12.47;;;;;;;2.27;81.55;99746.45;1752335;81;21380;-71
2021/03/15 06:21:35;;;;;;;19.02;11.50;;;;;;;2.31;81.54;99747.86;1771457;81;21762;-71
2021/03/15 06:24:02;;;;;;;14.60;7.87;;;;;;;2.36;81.53;99746.12;1764521;81;21143;-71
2021/03/15 06:26:31;;;;;;;12.20;8.38;;;;;;;2.39;81.52;99751.95;1740334;81;21200;-71
2021/03/15 06:29:02;;;;;;;12.13;7.47;;;;;;;2.40;81.51;99747.05;1737586;82;21216;-71
2021/03/15 06:31:29;;;;;;;17.23;8.25;;;;;;;2.47;81.53;99744.23;1742801;81;21223;-71
2021/03/15 06:33:57;;;;;;;14.58;8.30;;;;;;;2.49;81.54;99744.94;1755866;81;21143;-71
2021/03/15 06:36:23;;;;;;;16.32;8.90;;;;;;;2.51;81.54;99742.16;1745163;82;21196;-71
2021/03/15 06:38:49;;;;;;;12.50;8.00;;;;;;;2.54;81.56;99741.88;1744400;82;21970;-71
2021/03/15 06:41:16;;;;;;;16.27;7.60;;;;;;;2.56;81.54;99745.71;1768045;81;21251;-71
2021/03/15 06:43:42;;;;;;;16.37;8.33;;;;;;;2.58;81.56;99747.71;1767993;81;21155;-71
2021/03/15 06:46:09;;;;;;;14.10;8.35;;;;;;;2.59;81.54;99742.80;1767745;81;21478;-71
2021/03/15 06:48:36;;;;;;;14.15;8.33;;;;;;;2.62;81.51;99730.69;1768038;81;21172;-71
2021/03/15 06:51:02;;;;;;;13.43;8.00;;;;;;;2.68;81.50;99727.50;1768151;81;21560;-71
2021/03/15 06:53:41;;;;;;;12.95;7.45;;;;;;;2.72;81.47;99731.53;1737145;81;22144;-71
2021/03/15 06:56:16;;;;;;;15.43;8.13;;;;;;;2.75;81.47;99745.25;1737245;82;21175;-71
2021/03/15 06:58:52;;;;;;;13.43;6.87;;;;;;;2.82;81.47;99742.90;1737700;81;21300;-71
2021/03/15 07:01:26;;;;;;;14.87;7.47;;;;;;;2.89;81.46;99738.75;1737625;82;21176;-71
2021/03/15 07:04:08;;;;;;;16.10;8.00;;;;;;;2.97;81.44;99746.80;1766489;81;21119;-72
2021/03/15 07:06:36;;;;;;;16.30;9.25;;;;;;;3.07;81.45;99746.32;1768024;81;21266;-71
2021/03/15 07:09:12;;;;;;;13.15;8.78;;;;;;;3.15;81.41;99750.42;1767705;81;21179;-71
2021/03/15 07:11:39;;;;;;;15.65;9.23;;;;;;;3.21;81.40;99755.61;1761329;81;21186;-72
2021/03/15 07:14:05;;;;;;;14.40;8.33;;;;;;;3.21;81.38;99762.20;1737505;82;21132;-71
2021/03/15 07:16:32;;;;;;;14.20;7.97;;;;;;;3.19;81.37;99762.35;1739455;81;21175;-71
2021/03/15 07:19:02;;;;;;;10.72;7.50;;;;;;;3.17;81.34;99760.80;1737535;82;21210;-71
2021/03/15 07:21:40;;;;;;;14.47;7.37;;;;;;;3.10;81.33;99764.99;1737485;82;26788;-72
2021/03/15 07:24:10;;;;;;;11.48;6.90;;;;;;;3.03;81.33;99754.15;1737659;82;21605;-72
2021/03/15 07:26:43;;;;;;;17.57;8.35;;;;;;;3.00;81.33;99755.74;1732803;82;21783;-72
2021/03/15 07:29:16;;;;;;;13.62;8.08;;;;;;;2.98;81.32;99754.58;1732207;82;21195;-72
2021/03/15 07:31:49;;;;;;;13.55;8.68;;;;;;;2.97;81.31;99762.61;1732955;82;21211;-72
2021/03/15 07:34:19;;;;;;;13.90;9.20;;;;;;;2.96;81.32;99764.88;1715667;82;21183;-72
2021/03/15 07:36:54;;;;;;;14.80;7.95;;;;;;;2.93;81.32;99769.11;1729459;83;21208;-71
2021/03/15 07:39:21;;;;;;;16.20;10.00;;;;;;;2.95;81.34;99772.45;1738844;81;21184;-71
2021/03/15 07:41:49;;;;;;;13.38;8.68;;;;;;;2.93;81.33;99774.38;1729325;82;21185;-72
2021/03/15 07:44:20;;;;;;;16.82;8.23;;;;;;;2.91;81.35;99778.96;1756062;81;21288;-72
2021/03/15 07:46:47;;;;;;;15.50;8.90;;;;;;;2.93;81.33;99780.48;1755579;81;21183;-72
2021/03/15 07:49:38;;;;;;;16.82;8.90;;;;;;;2.92;81.34;99776.17;1756098;81;21156;-72
2021/03/15 07:52:10;;;;;;;13.88;8.60;;;;;;;2.93;81.33;99779.17;1755841;81;21641;-72
2021/03/15 07:54:39;;;;;;;15.95;8.70;;;;;;;2.99;81.36;99784.39;1787312;80;21147;-73
2021/03/15 07:57:21;;;;;;;17.55;9.53;;;;;;;3.03;81.39;99779.68;1755895;81;21194;-72
2021/03/15 07:59:53;;;;;;;13.90;8.85;;;;;;;3.04;81.41;99782.16;1747255;80;21174;-72
2021/03/15 08:02:28;;;;;;;18.57;11.78;;;;;;;3.04;81.43;99780.84;1732596;81;21191;-72
2021/03/15 08:04:55;;;;;;;17.40;10.32;;;;;;;3.14;81.45;99780.36;1762005;80;21169;-72
2021/03/15 08:07:22;;;;;;;16.95;10.05;;;;;;;3.28;81.46;99779.95;1757310;80;21125;-72
2021/03/15 08:09:55;;;;;;;18.67;9.45;;;;;;;3.44;81.45;99780.23;1787190;80;21214;-72
2021/03/15 08:12:24;;;;;;;18.60;10.78;;;;;;;3.58;81.47;99778.97;1756671;80;21159;-72
2021/03/15 08:14:58;;;;;;;14.93;10.65;;;;;;;3.68;81.45;99777.16;1786090;80;21127;-72
2021/03/15 08:17:24;;;;;;;18.32;10.53;;;;;;;3.76;81.46;99773.81;1782219;80;21179;-73
2021/03/15 08:19:50;;;;;;;21.05;10.23;;;;;;;3.88;81.44;99777.45;1744323;81;21196;-72
2021/03/15 08:22:27;;;;;;;13.38;9.28;;;;;;;4.02;81.43;99778.31;1759810;79;22064;-72
2021/03/15 08:24:57;;;;;;;14.58;9.53;;;;;;;4.08;81.40;99771.65;1751864;79;21638;-72
2021/03/15 08:27:26;;;;;;;17.60;9.85;;;;;;;4.11;81.42;99774.00;1756783;80;21563;-73
2021/03/15 08:29:53;;;;;;;17.82;10.35;;;;;;;4.18;81.40;99780.36;1755312;80;21140;-72
2021/03/15 08:32:21;;;;;;;17.52;9.30;;;;;;;4.24;81.39;99774.49;1750468;80;21209;-72
2021/03/15 08:34:47;;;;;;;17.35;8.70;;;;;;;4.29;81.37;99774.88;1752913;80;21265;-73
2021/03/15 08:37:13;;;;;;;16.95;9.75;;;;;;;4.46;81.37;99775.45;1760184;80;21196;-73
2021/03/15 08:39:43;;;;;;;16.27;8.78;;;;;;;4.71;81.38;99771.77;1761748;80;21604;-74
2021/03/15 08:42:22;;;;;;;14.45;9.53;;;;;;;4.80;81.32;99773.52;1753610;80;21227;-74
2021/03/15 08:44:49;;;;;;;18.67;11.38;;;;;;;4.83;81.32;99767.44;1763572;80;21152;-73
2021/03/15 08:47:49;;;;;;;23.70;13.30;;;;;;;4.91;81.28;99773.31;1755192;80;21198;-71
2021/03/15 08:50:36;;;;;;;21.20;11.53;;;;;;;4.91;81.24;99769.34;1754085;81;21201;-73
2021/03/15 08:53:02;;;;;;;16.45;11.65;;;;;;;4.88;81.19;99776.25;1770952;80;21152;-73
2021/03/15 08:55:46;;;;;;;22.87;11.85;;;;;;;4.88;81.12;99761.23;1770668;80;21168;-73
2021/03/15 08:58:42;;;;;;;19.87;10.25;;;;;;;4.96;81.02;99765.27;1756790;80;21193;-73
2021/03/15 09:01:10;;;;;;;14.58;9.45;;;;;;;5.05;80.95;99767.51;1736900;80;22238;-73
2021/03/15 09:03:59;;;;;;;25.23;12.25;;;;;;;5.08;80.87;99764.56;1748308;80;21198;-73
2021/03/15 09:06:37;;;;;;;13.05;8.95;;;;;;;5.11;80.83;99766.90;1745460;82;21140;-73
2021/03/15 09:09:22;;;;;;;38.38;20.55;;;;;;;5.14;80.76;99760.50;1758691;80;21125;-74
2021/03/15 09:11:49;;;;;;;16.73;10.03;;;;;;;5.24;80.70;99763.38;1764208;79;21195;-73
2021/03/15 09:14:29;;;;;;;17.23;9.63;;;;;;;5.43;80.63;99750.02;1750769;80;21207;-73
2021/03/15 09:17:06;;;;;;;18.55;10.15;;;;;;;5.56;80.56;99748.80;1756339;80;21193;-73
2021/03/15 09:19:35;;;;;;;16.15;9.65;;;;;;;5.77;80.51;99747.95;1756647;80;21152;-73
2021/03/15 09:22:03;;;;;;;17.07;10.48;;;;;;;5.92;80.37;99742.44;1759246;80;21221;-73
2021/03/15 09:24:46;;;;;;;19.30;10.85;;;;;;;6.13;80.28;99742.89;1764608;79;21200;-73
2021/03/15 09:27:39;;;;;;;30.60;13.65;;;;;;;6.30;80.22;99732.72;1776032;79;21198;-73
2021/03/15 09:30:14;;;;;;;17.07;9.18;;;;;;;6.63;80.15;99730.19;1760956;81;21650;-74
2021/03/15 09:32:44;;;;;;;23.45;11.05;;;;;;;6.88;79.94;99732.75;1777024;79;21765;-74
2021/03/15 09:35:37;;;;;;;20.72;8.93;;;;;;;6.92;79.73;99730.61;1785315;79;21919;-73
2021/03/15 09:38:06;;;;;;;18.20;9.55;;;;;;;6.80;79.54;99731.89;1741053;82;21683;-73
2021/03/15 09:40:40;;;;;;;19.80;9.45;;;;;;;6.45;79.37;99731.12;1771689;79;21213;-73
2021/03/15 09:43:07;;;;;;;29.05;14.30;;;;;;;6.34;79.21;99731.91;1795338;79;21171;-73
2021/03/15 09:45:38;;;;;;;22.52;10.45;;;;;;;6.21;78.99;99723.58;1773281;79;21706;-73
2021/03/15 09:48:22;;;;;;;23.80;14.65;;;;;;;6.14;78.82;99728.69;1765738;79;21180;-73
2021/03/15 09:50:52;;;;;;;35.68;17.70;;;;;;;6.15;78.64;99721.58;1778317;79;21769;-72
2021/03/15 09:53:18;;;;;;;13.93;8.50;;;;;;;6.12;78.44;99728.52;1747658;81;22140;-72
2021/03/15 09:55:44;;;;;;;31.35;11.73;;;;;;;6.07;78.26;99718.39;1723552;82;21211;-72
2021/03/15 09:58:16;;;;;;;25.75;10.90;;;;;;;5.93;78.00;99720.30;1790948;79;21178;-72
2021/03/15 10:00:43;;;;;;;22.02;11.20;;;;;;;5.82;77.80;99713.91;1772177;79;21176;-73
2021/03/15 10:03:22;;;;;;;23.20;11.15;;;;;;;5.78;77.67;99722.66;1763877;81;21635;-72
2021/03/15 10:05:50;;;;;;;36.20;16.17;;;;;;;5.71;77.45;99720.78;1752148;81;22159;-72
2021/03/15 10:08:16;;;;;;;43.25;20.10;;;;;;;5.71;77.30;99724.75;1779039;80;21675;-72
2021/03/15 10:10:43;;;;;;;17.92;10.20;;;;;;;5.73;77.18;99721.48;1750671;81;21684;-72
2021/03/15 10:13:09;;;;;;;18.57;10.13;;;;;;;5.72;77.08;99721.96;1748479;81;21201;-73
2021/03/15 10:15:36;;;;;;;38.78;17.17;;;;;;;5.72;76.98;99713.19;1762437;81;21204;-72
2021/03/15 10:18:02;;;;;;;30.70;14.50;;;;;;;5.76;76.89;99717.19;1748194;81;21192;-73
2021/03/15 10:20:31;;;;;;;24.50;15.75;;;;;;;5.85;76.81;99718.40;1765723;81;21215;-72
2021/03/15 10:22:57;;;;;;;25.17;15.90;;;;;;;6.03;76.70;99711.75;1760994;81;21346;-73
2021/03/15 10:25:23;;;;;;;17.45;7.83;;;;;;;6.18;76.58;99712.83;1732689;81;21171;-73
2021/03/15 10:27:57;;;;;;;14.58;7.30;;;;;;;6.32;76.46;99704.28;1752811;80;21144;-73
2021/03/15 10:30:30;;;;;;;14.40;7.25;;;;;;;6.36;76.33;99700.33;1745072;81;21647;-73
2021/03/15 10:32:58;;;;;;;17.45;9.23;;;;;;;6.42;76.21;99703.65;1761406;80;21684;-73
2021/03/15 10:35:27;;;;;;;14.80;7.70;;;;;;;6.45;76.09;99703.32;1764288;80;21235;-73
2021/03/15 10:37:54;;;;;;;20.53;7.97;;;;;;;6.53;76.00;99703.36;1754327;81;21227;-72
2021/03/15 10:40:23;;;;;;;15.38;6.00;;;;;;;6.66;75.84;99699.40;1786485;80;21163;-73
2021/03/15 10:42:49;;;;;;;14.35;7.92;;;;;;;6.78;75.71;99700.77;1759565;80;21319;-72
2021/03/15 10:45:16;;;;;;;15.70;7.17;;;;;;;6.84;75.54;99704.08;1760533;80;21600;-73
2021/03/15 10:47:43;;;;;;;14.05;9.00;;;;;;;6.87;75.36;99695.80;1765781;81;21172;-72
2021/03/15 10:50:35;;;;;;;14.18;7.45;;;;;;;6.85;75.14;99700.45;1748971;81;21273;-73
2021/03/15 10:53:20;;;;;;;11.08;6.80;;;;;;;6.81;74.98;99701.77;1735779;82;21724;-73
2021/03/15 10:55:47;;;;;;;25.27;12.35;;;;;;;6.79;74.77;99701.91;1736671;82;21171;-72
2021/03/15 10:58:17;;;;;;;14.60;7.58;;;;;;;6.71;74.59;99701.08;1736754;82;21182;-73
2021/03/15 11:00:53;;;;;;;11.93;6.25;;;;;;;6.69;74.44;99701.72;1737426;81;21179;-73
2021/03/15 11:03:22;;;;;;;13.15;6.50;;;;;;;6.65;74.27;99703.86;1746084;81;21195;-73
2021/03/15 11:06:04;;;;;;;38.48;16.42;;;;;;;6.60;74.11;99697.41;1760790;81;21183;-73
2021/03/15 11:08:30;;;;;;;13.90;7.08;;;;;;;6.59;73.97;99694.41;1744323;81;21659;-73
2021/03/15 11:11:17;;;;;;;16.30;9.15;;;;;;;6.61;73.76;99691.13;1748106;81;21626;-73
2021/03/15 11:13:49;;;;;;;33.90;20.02;;;;;;;6.66;73.62;99690.96;1739037;81;21618;-72
2021/03/15 11:16:21;;;;;;;32.88;19.92;;;;;;;6.79;73.51;99682.03;1772974;80;21565;-72
2021/03/15 11:18:49;;;;;;;39.15;18.87;;;;;;;6.95;73.37;99677.27;1763064;80;36851;-73
2021/03/15 11:21:15;;;;;;;89.07;58.60;;;;;;;7.08;73.23;99668.81;1770805;81;21593;-73
2021/03/15 11:23:45;;;;;;;69.55;27.67;;;;;;;7.24;73.06;99666.17;1762332;81;21620;-73
2021/03/15 11:26:15;;;;;;;22.32;12.70;;;;;;;7.43;72.88;99661.34;1758524;80;21147;-73
2021/03/15 11:28:57;;;;;;;14.33;8.13;;;;;;;7.67;72.70;99659.13;1766192;80;21588;-73
2021/03/15 11:31:29;;;;;;;13.72;7.15;;;;;;;7.77;72.47;99660.30;1764629;80;21119;-74
2021/03/15 11:33:59;;;;;;;15.05;6.75;;;;;;;7.83;72.24;99651.14;1755048;81;21242;-73
2021/03/15 11:36:28;;;;;;;13.62;8.10;;;;;;;7.97;72.03;99650.93;1778409;80;21207;-73
2021/03/15 11:38:58;;;;;;;17.37;7.05;;;;;;;8.15;71.87;99646.22;1784666;80;21168;-73
2021/03/15 11:41:29;;;;;;;17.77;9.38;;;;;;;8.43;71.61;99642.13;1722295;82;21168;-73
2021/03/15 11:43:55;;;;;;;12.40;7.10;;;;;;;8.70;71.36;99637.30;1735335;81;21625;-73
2021/03/15 11:46:21;;;;;;;12.20;7.72;;;;;;;8.74;70.98;99636.77;1751659;81;21897;-73
2021/03/15 11:48:48;;;;;;;11.00;6.12;;;;;;;8.61;70.73;99631.22;1740966;81;21196;-73